createdAt,value
2019-02-24T05:03:43.614Z,66.772461
2019-02-24T05:07:11.582Z,66.876221
2019-02-24T05:10:39.654Z,67.39502
2019-02-24T05:14:07.669Z,67.39502
2019-02-24T05:17:35.800Z,68.127441
2019-02-24T05:21:04.743Z,68.438721
2019-02-24T05:24:32.689Z,68.780518
2019-02-24T05:28:00.744Z,68.365479
2019-02-24T05:31:28.785Z,69.40918
2019-02-24T05:34:56.867Z,68.994141
2019-02-24T05:38:25.907Z,69.512939
2019-02-24T05:41:53.823Z,69.0979
2019-02-24T05:45:21.805Z,69.0979
2019-02-24T05:48:50.746Z,69.934082
2019-02-24T05:52:18.652Z,69.616699
2019-02-24T05:55:46.684Z,70.587158
2019-02-24T05:59:14.642Z,71.21582
2019-02-24T06:02:42.574Z,71.97876
2019-02-24T06:06:10.582Z,72.296143
2019-02-24T06:09:39.628Z,72.296143
2019-02-24T06:13:07.686Z,73.339844
2019-02-24T06:16:35.709Z,72.918701
2019-02-24T06:20:04.699Z,73.547363
2019-02-24T06:23:33.567Z,74.487305
2019-02-24T06:27:01.646Z,74.383545
2019-02-24T06:30:29.656Z,74.694824
2019-02-24T06:33:57.665Z,74.487305
2019-02-24T06:37:25.735Z,75.012207
2019-02-24T06:40:53.778Z,74.798584
2019-02-24T06:44:22.840Z,75.427246
2019-02-24T06:47:51.837Z,75.634766
2019-02-24T06:51:19.932Z,75.012207
2019-02-24T06:54:47.948Z,75.286865
2019-02-24T06:58:15.934Z,74.346924
2019-02-24T07:01:44.885Z,73.895264
2019-02-24T07:05:12.956Z,73.687744
2019-02-24T07:08:40.930Z,72.821045
2019-02-24T07:12:08.906Z,72.680664
2019-02-24T07:15:36.851Z,71.606445
2019-02-24T07:19:04.833Z,70.947266
2019-02-24T07:22:32.761Z,70.532227
2019-02-24T07:26:00.790Z,70.739746
2019-02-24T07:29:28.742Z,69.909668
2019-02-24T07:32:56.731Z,68.42041
2019-02-24T07:36:24.806Z,67.86499
2019-02-24T07:39:53.831Z,68.908691
2019-02-24T07:43:21.831Z,67.834473
2019-02-24T07:46:49.780Z,66.796875
2019-02-24T07:50:18.020Z,66.662598
2019-02-24T07:53:45.941Z,67.077637
2019-02-24T07:57:13.888Z,65.380859
2019-02-24T08:00:42.123Z,64.208984
2019-02-24T08:04:10.217Z,63.452148
2019-02-24T08:07:38.271Z,62.280273
2019-02-24T08:11:06.339Z,62.255859
2019-02-24T08:14:34.428Z,62.329102
2019-02-24T08:18:02.623Z,60.638428
2019-02-24T08:21:30.669Z,60.742188
2019-02-24T08:24:58.735Z,60.925293
2019-02-24T08:28:26.730Z,61.444092
2019-02-24T08:31:54.776Z,60.272217
2019-02-24T08:35:24.851Z,59.753418
2019-02-24T08:38:52.892Z,58.587646
2019-02-24T08:42:21.005Z,59.417725
2019-02-24T08:45:49.995Z,59.521484
2019-02-24T08:49:17.947Z,60.968018
2019-02-24T08:52:46.964Z,59.289551
2019-02-24T08:56:14.990Z,59.289551
2019-02-24T08:59:43.153Z,59.60083
2019-02-24T09:03:11.124Z,60.009766
2019-02-24T09:06:39.227Z,59.698486
2019-02-24T09:10:07.234Z,59.393311
2019-02-24T09:13:36.189Z,58.740234
2019-02-24T09:17:04.174Z,59.051514
2019-02-24T09:20:32.280Z,57.580566
2019-02-24T09:24:00.249Z,57.550049
2019-02-24T09:27:28.306Z,58.068848
2019-02-24T09:31:00.651Z,57.446289
2019-02-24T09:34:27.248Z,57.940674
2019-02-24T09:37:55.216Z,57.421875
2019-02-24T09:41:23.242Z,57.189941
2019-02-24T09:44:51.206Z,57.165527
2019-02-24T09:48:19.242Z,56.646729
2019-02-24T09:51:47.199Z,57.263184
2019-02-24T09:55:16.251Z,56.311035
2019-02-24T09:58:44.308Z,56.829834
2019-02-24T10:02:12.298Z,56.903076
2019-02-24T10:05:41.397Z,57.086182
2019-02-24T10:09:10.384Z,56.030273
2019-02-24T10:12:39.448Z,53.710938
2019-02-24T10:16:07.838Z,52.276611
2019-02-24T10:19:35.790Z,50.689697
2019-02-24T10:23:03.747Z,48.822021
2019-02-24T10:26:31.767Z,49.902344
2019-02-24T10:29:59.688Z,48.077393
2019-02-24T10:33:27.660Z,49.151611
2019-02-24T10:36:55.601Z,48.657227
2019-02-24T10:40:23.522Z,50.378418
2019-02-24T10:43:51.504Z,48.034668
2019-02-24T10:47:19.602Z,42.08374
2019-02-24T10:50:47.678Z,40.50293
2019-02-24T10:54:15.695Z,36.981201
2019-02-24T10:57:43.716Z,34.118652
2019-02-24T11:01:11.717Z,35.174561
2019-02-24T11:04:39.789Z,34.588623
2019-02-24T11:08:07.809Z,36.37085
2019-02-24T11:11:36.822Z,37.322998
2019-02-24T11:15:04.859Z,38.165283
2019-02-24T11:18:32.986Z,38.232422
2019-02-24T11:22:00.919Z,37.62207
2019-02-24T11:25:29.063Z,36.798096
2019-02-24T11:28:58.204Z,34.533691
2019-02-24T11:32:26.278Z,35.430908
2019-02-24T11:35:54.263Z,37.957764
2019-02-24T11:39:22.396Z,36.712646
2019-02-24T11:42:51.502Z,37.860107
2019-02-24T11:46:20.761Z,36.761475
2019-02-24T11:49:48.896Z,36.694336
2019-02-24T11:53:17.221Z,37.70752
2019-02-24T11:56:45.350Z,38.232422
2019-02-24T12:00:14.665Z,39.532471
2019-02-24T12:03:42.797Z,38.214111
2019-02-24T12:07:10.915Z,39.0625
2019-02-24T12:10:38.863Z,41.333008
2019-02-24T12:14:06.861Z,39.672852
2019-02-24T12:17:35.915Z,39.453125
2019-02-24T12:21:04.018Z,39.874268
2019-02-24T12:24:32.990Z,41.479492
2019-02-24T12:28:01.141Z,40.588379
2019-02-24T12:31:29.090Z,40.466309
2019-02-24T12:34:57.076Z,42.004395
2019-02-24T12:38:26.066Z,42.126465
2019-02-24T12:41:54.064Z,42.022705
2019-02-24T12:45:22.267Z,45.251465
2019-02-24T12:48:50.211Z,41.094971
2019-02-24T12:52:18.325Z,41.802979
2019-02-24T12:55:47.257Z,41.723633
2019-02-24T12:59:15.589Z,39.996338
2019-02-24T13:02:43.694Z,40.844727
2019-02-24T13:06:12.855Z,37.817383
2019-02-24T13:09:41.996Z,38.220215
2019-02-24T13:13:11.834Z,35.272217
2019-02-24T13:16:40.879Z,35.357666
2019-02-24T13:20:10.218Z,35.461426
2019-02-24T13:23:37.945Z,37.084961
2019-02-24T13:27:06.962Z,37.677002
2019-02-24T13:30:36.124Z,37.591553
2019-02-24T13:34:04.073Z,37.286377
2019-02-24T13:37:32.086Z,38.427734
2019-02-24T13:41:00.181Z,38.427734
2019-02-24T13:44:28.296Z,38.201904
2019-02-24T13:47:56.298Z,37.17041
2019-02-24T13:51:24.386Z,38.73291
2019-02-24T13:54:52.395Z,38.409424
2019-02-24T13:58:20.487Z,37.780762
2019-02-24T14:01:48.594Z,36.560059
2019-02-24T14:05:16.686Z,35.852051
2019-02-24T14:08:44.791Z,34.649658
2019-02-24T14:12:13.824Z,37.512207
2019-02-24T14:15:41.842Z,36.59668
2019-02-24T14:19:09.867Z,38.220215
2019-02-24T14:22:37.853Z,37.591553
2019-02-24T14:26:07.200Z,35.662842
2019-02-24T14:29:35.171Z,36.798096
2019-02-24T14:33:03.232Z,36.59668
2019-02-24T14:36:31.326Z,36.712646
2019-02-24T14:39:59.698Z,37.530518
2019-02-24T14:43:28.691Z,39.056396
2019-02-24T14:46:57.657Z,41.412354
2019-02-24T14:50:25.795Z,44.262695
2019-02-24T14:53:53.840Z,43.548584
2019-02-24T14:57:21.876Z,43.444824
2019-02-24T15:00:49.910Z,43.670654
2019-02-24T15:04:17.905Z,42.956543
2019-02-24T15:07:46.658Z,42.163086
2019-02-24T15:11:15.839Z,41.85791
2019-02-24T15:14:43.982Z,41.467285
2019-02-24T15:18:12.149Z,41.894531
2019-02-24T15:21:40.174Z,41.082764
2019-02-24T15:25:08.147Z,41.693115
2019-02-24T15:28:36.346Z,42.120361
2019-02-24T15:32:04.483Z,43.75
2019-02-24T15:35:32.560Z,43.365479
2019-02-24T15:39:00.578Z,44.610596
2019-02-24T15:42:28.597Z,44.915771
2019-02-24T15:45:56.691Z,45.037842
2019-02-24T15:49:24.613Z,45.880127
2019-02-24T15:52:52.605Z,45.574951
2019-02-24T15:56:20.707Z,46.795654
2019-02-24T15:59:48.660Z,47.741699
2019-02-24T16:03:17.629Z,50.628662
2019-02-24T16:06:45.618Z,53.619385
2019-02-24T16:10:13.564Z,54.693604
2019-02-24T16:13:42.566Z,56.970215
2019-02-24T16:17:10.629Z,57.611084
2019-02-24T16:20:38.694Z,58.868408
2019-02-24T16:24:07.655Z,58.38623
2019-02-24T16:27:35.738Z,58.721924
2019-02-24T16:31:03.848Z,58.544922
2019-02-24T16:34:31.805Z,57.409668
2019-02-24T16:37:59.845Z,56.207275
2019-02-24T16:41:27.940Z,56.848145
2019-02-24T16:44:56.023Z,55.926514
2019-02-24T16:48:24.836Z,56.567383
2019-02-24T16:51:52.990Z,56.256104
2019-02-24T16:55:20.919Z,56.152344
2019-02-24T16:58:48.855Z,56.182861
2019-02-24T17:02:22.848Z,56.82373
2019-02-24T17:05:48.730Z,57.751465
2019-02-24T17:09:16.663Z,57.159424
2019-02-24T17:12:44.590Z,58.190918
2019-02-24T17:16:12.570Z,58.398438
2019-02-24T17:19:41.531Z,57.495117
2019-02-24T17:23:09.466Z,57.495117
2019-02-24T17:26:37.381Z,58.111572
2019-02-24T17:30:05.333Z,57.598877
2019-02-24T17:33:33.328Z,57.391357
2019-02-24T17:37:01.294Z,57.598877
2019-02-24T17:40:29.289Z,56.982422
2019-02-24T17:43:57.232Z,58.013916
2019-02-24T17:47:25.227Z,57.910156
2019-02-24T17:50:53.188Z,56.878662
2019-02-24T17:54:21.115Z,57.086182
2019-02-24T17:57:50.409Z,56.567383
2019-02-24T18:01:18.492Z,57.495117
2019-02-24T18:04:46.552Z,57.391357
2019-02-24T18:08:14.533Z,58.654785
2019-02-24T18:11:44.785Z,58.24585
2019-02-24T18:15:12.862Z,58.990479
2019-02-24T18:18:40.794Z,59.301758
2019-02-24T18:22:10.094Z,60.125732
2019-02-24T18:25:38.399Z,60.852051
2019-02-24T18:29:06.423Z,60.876465
2019-02-24T18:32:35.375Z,61.187744
2019-02-24T18:36:05.433Z,61.700439
2019-02-24T18:39:33.391Z,62.426758
2019-02-24T18:43:01.337Z,62.866211
2019-02-24T18:46:34.266Z,63.28125
2019-02-24T18:50:09.146Z,63.793945
2019-02-24T18:53:37.086Z,64.208984
2019-02-24T18:57:05.009Z,64.929199
2019-02-24T19:00:34.023Z,65.893555
2019-02-24T19:04:02.027Z,66.101074
2019-02-24T19:07:29.980Z,66.821289
2019-02-24T19:10:57.964Z,67.059326
2019-02-24T19:14:25.929Z,67.474365
2019-02-24T19:17:53.910Z,67.578125
2019-02-24T19:21:21.949Z,68.4021
2019-02-24T19:24:49.955Z,68.371582
2019-02-24T19:34:27.970Z,68.682861
2019-02-24T19:37:56.082Z,69.091797
2019-02-24T19:41:24.077Z,69.848633
2019-02-24T19:44:53.041Z,70.056152
2019-02-24T19:48:21.956Z,70.367432
2019-02-24T19:51:50.999Z,70.776367
2019-02-24T19:55:18.923Z,70.983887
2019-02-24T19:58:49.092Z,71.325684
2019-02-24T20:02:16.860Z,71.740723
2019-02-24T20:05:44.821Z,72.155762
2019-02-24T20:09:12.737Z,72.497559
2019-02-24T20:12:40.788Z,72.912598
2019-02-24T20:16:09.322Z,73.223877
2019-02-24T20:19:37.307Z,73.327637
2019-02-24T20:23:05.295Z,73.638916
2019-02-24T20:26:33.273Z,74.151611
2019-02-24T20:30:01.339Z,74.462891
2019-02-24T20:33:29.326Z,74.462891
2019-02-24T20:36:57.295Z,74.77417
2019-02-24T20:40:25.887Z,74.981689
2019-02-24T20:43:55.083Z,75.842285
2019-02-24T20:47:23.003Z,76.153564
2019-02-24T20:50:52.051Z,76.049805
2019-02-24T20:54:19.940Z,76.153564
2019-02-24T20:57:48.878Z,76.672363
2019-02-24T21:01:16.872Z,76.428223
2019-02-24T21:04:45.744Z,76.843262
2019-02-24T21:08:13.709Z,76.947021
2019-02-24T21:11:41.620Z,77.258301
2019-02-24T21:15:09.639Z,77.496338
2019-02-24T21:18:42.571Z,77.807617
2019-02-24T21:22:11.927Z,78.015137
2019-02-24T21:25:40.046Z,78.430176
2019-02-24T21:29:08.028Z,78.845215
2019-02-24T21:32:35.968Z,78.948975
2019-02-24T21:36:03.999Z,79.431152
2019-02-24T21:39:31.965Z,79.223633
2019-02-24T21:42:59.906Z,79.327393
2019-02-24T21:46:27.865Z,79.528809
2019-02-24T21:49:55.836Z,79.876709
2019-02-24T21:53:23.830Z,80.084229
2019-02-24T21:56:51.770Z,80.499268
2019-02-24T22:00:19.771Z,80.810547
2019-02-24T22:03:47.711Z,80.914307
2019-02-24T22:07:15.714Z,81.018066
2019-02-24T22:10:43.692Z,81.640625
2019-02-24T22:14:11.624Z,81.292725
2019-02-24T22:17:39.580Z,81.390381
2019-02-24T22:21:07.623Z,81.5979
2019-02-24T22:24:35.596Z,82.012939
2019-02-24T22:28:03.493Z,82.116699
2019-02-24T22:31:31.415Z,82.36084
2019-02-24T22:34:59.348Z,82.879639
2019-02-24T22:38:27.405Z,83.190918
2019-02-24T22:41:55.313Z,83.538818
2019-02-24T22:45:23.236Z,83.953857
2019-02-24T22:48:51.181Z,84.472656
2019-02-24T22:52:19.319Z,84.680176
2019-02-24T22:55:47.256Z,84.576416
2019-02-24T22:59:15.251Z,85.089111
